Time;durP1;ratioP1;P1;durP2;ratioP2;P2;SDS_P1;SDS_P2;PMS_P1;PMS_P2;Temp;Humidity;BMP_temperature;BMP_pressure;BME280_temperature;BME280_humidity;BME280_pressure;Samples;Min_cycle;Max_cycle;Signal;HPM_P1;HPM_P2
2023/09/23 00:00:34;;;;;;;11.75;8.32;;;;;;;;;;2099477;28;20105;-74
2023/09/23 00:01:57;;;;;;;12.75;9.25;;;;;;;;;;2095952;28;20517;-74
2023/09/23 00:03:18;;;;;;;14.60;11.18;;;;;;;;;;2094685;28;20044;-75
2023/09/23 00:04:39;;;;;;;15.43;10.60;;;;;;;;;;2097086;28;20037;-76
2023/09/23 00:06:00;;;;;;;13.57;10.85;;;;;;;;;;2088533;28;20488;-74
2023/09/23 00:07:21;;;;;;;17.60;10.98;;;;;;;;;;2091743;28;20466;-75
2023/09/23 00:08:46;;;;;;;19.58;13.00;;;;;;;;;;2094449;28;20043;-74
2023/09/23 00:10:08;;;;;;;17.67;12.07;;;;;;;;;;2096210;28;20031;-74
2023/09/23 00:11:29;;;;;;;18.67;13.23;;;;;;;;;;2095992;28;20032;-75
2023/09/23 00:12:50;;;;;;;20.85;13.82;;;;;;;;;;2096397;28;20033;-74
2023/09/23 00:14:12;;;;;;;20.83;15.02;;;;;;;;;;2091608;28;20032;-74
2023/09/23 00:15:35;;;;;;;26.10;14.63;;;;;;;;;;2095009;28;20032;-75
2023/09/23 00:16:55;;;;;;;24.10;15.60;;;;;;;;;;2094371;28;20488;-75
2023/09/23 00:18:17;;;;;;;22.52;15.57;;;;;;;;;;2091576;28;20065;-74
2023/09/23 00:19:40;;;;;;;25.80;15.55;;;;;;;;;;2094435;28;20079;-74
2023/09/23 00:21:03;;;;;;;28.60;17.85;;;;;;;;;;2095341;28;20483;-75
2023/09/23 00:22:24;;;;;;;27.02;16.88;;;;;;;;;;2095487;28;20071;-75
2023/09/23 00:23:46;;;;;;;24.73;16.63;;;;;;;;;;2096616;28;20396;-75
2023/09/23 00:25:08;;;;;;;25.63;15.85;;;;;;;;;;2094773;28;20033;-75
2023/09/23 00:26:29;;;;;;;27.85;15.85;;;;;;;;;;2095870;28;20040;-75
2023/09/23 00:27:50;;;;;;;24.75;16.98;;;;;;;;;;2095365;28;20029;-75
2023/09/23 00:29:11;;;;;;;29.98;15.90;;;;;;;;;;2095417;28;20024;-74
2023/09/23 00:30:32;;;;;;;28.17;19.67;;;;;;;;;;2093074;28;20432;-75
2023/09/23 00:31:54;;;;;;;24.90;16.30;;;;;;;;;;2095008;28;20484;-74
2023/09/23 00:33:17;;;;;;;25.50;16.90;;;;;;;;;;2103584;28;20040;-75
2023/09/23 00:34:39;;;;;;;26.40;17.65;;;;;;;;;;2094769;28;20040;-75
2023/09/23 00:36:00;;;;;;;28.00;17.02;;;;;;;;;;2096681;28;20056;-74
2023/09/23 00:37:21;;;;;;;27.17;18.42;;;;;;;;;;2089974;28;20392;-75
2023/09/23 00:38:42;;;;;;;27.17;18.63;;;;;;;;;;2093203;28;20530;-75
2023/09/23 00:40:04;;;;;;;30.83;17.10;;;;;;;;;;2093346;28;20086;-74
2023/09/23 00:41:25;;;;;;;24.02;16.02;;;;;;;;;;2092436;28;20086;-74
2023/09/23 00:42:47;;;;;;;26.05;17.23;;;;;;;;;;2094044;28;20338;-75
2023/09/23 00:44:09;;;;;;;29.10;17.73;;;;;;;;;;2091701;28;20102;-74
2023/09/23 00:45:31;;;;;;;27.35;18.05;;;;;;;;;;2092146;28;20467;-75
2023/09/23 00:46:52;;;;;;;;;;;;;;;;;;2098388;28;20036;-75
2023/09/23 00:48:14;;;;;;;29.60;17.40;;;;;;;;;;2097249;28;19954;-75
2023/09/23 00:49:37;;;;;;;27.45;18.25;;;;;;;;;;2096068;28;20029;-75
2023/09/23 00:50:59;;;;;;;25.50;16.63;;;;;;;;;;2092211;28;20025;-74
2023/09/23 00:52:20;;;;;;;34.30;19.15;;;;;;;;;;2102927;28;20391;-75
2023/09/23 00:53:44;;;;;;;31.67;19.02;;;;;;;;;;2094991;28;20041;-74
2023/09/23 00:55:05;;;;;;;29.00;17.65;;;;;;;;;;2089824;28;20087;-74
2023/09/23 00:56:26;;;;;;;34.40;18.50;;;;;;;;;;2093776;28;20143;-74
2023/09/23 00:57:48;;;;;;;33.65;19.45;;;;;;;;;;2094117;28;20025;-74
2023/09/23 00:59:11;;;;;;;31.80;18.60;;;;;;;;;;2094061;28;20032;-75
2023/09/23 01:00:32;;;;;;;;;;;;;;;;;;2090753;28;20086;-74
2023/09/23 01:01:53;;;;;;;30.48;19.10;;;;;;;;;;2093269;28;19912;-75
2023/09/23 01:03:15;;;;;;;31.60;18.73;;;;;;;;;;2093053;28;20533;-74
2023/09/23 01:04:36;;;;;;;35.60;21.63;;;;;;;;;;2095384;28;20040;-75
2023/09/23 01:06:14;;;;;;;32.50;17.80;;;;;;;;;;2087829;28;20091;-74
2023/09/23 01:07:35;;;;;;;30.60;18.55;;;;;;;;;;2092363;28;20044;-74
2023/09/23 01:08:57;;;;;;;36.40;21.38;;;;;;;;;;2099814;28;20036;-75
2023/09/23 01:10:18;;;;;;;31.98;19.70;;;;;;;;;;2106048;28;20031;-74
2023/09/23 01:11:39;;;;;;;31.17;18.48;;;;;;;;;;2097135;28;20037;-75
2023/09/23 01:13:00;;;;;;;28.83;18.85;;;;;;;;;;2103868;28;20036;-75
2023/09/23 01:14:21;;;;;;;31.05;18.30;;;;;;;;;;2095223;28;20511;-75
2023/09/23 01:15:43;;;;;;;37.47;20.42;;;;;;;;;;2090504;28;20025;-75
2023/09/23 01:17:06;;;;;;;33.42;18.90;;;;;;;;;;2084010;28;20029;-74
2023/09/23 01:18:28;;;;;;;29.33;17.80;;;;;;;;;;2094020;28;20033;-74
2023/09/23 01:19:51;;;;;;;33.20;18.10;;;;;;;;;;2096400;28;20139;-75
2023/09/23 01:21:12;;;;;;;;;;;;;;;;;;2093130;28;20037;-75
2023/09/23 01:22:35;;;;;;;32.83;18.58;;;;;;;;;;2095339;28;19905;-75
2023/09/23 01:23:56;;;;;;;31.90;18.25;;;;;;;;;;2097359;28;20044;-75
2023/09/23 01:25:17;;;;;;;32.05;18.00;;;;;;;;;;2097242;28;20031;-75
2023/09/23 01:26:39;;;;;;;30.08;17.95;;;;;;;;;;2090183;28;20417;-75
2023/09/23 01:28:03;;;;;;;31.65;18.42;;;;;;;;;;2092788;28;20450;-75
2023/09/23 01:29:26;;;;;;;32.78;17.85;;;;;;;;;;2093712;28;20484;-75
2023/09/23 01:30:47;;;;;;;32.22;17.73;;;;;;;;;;2094807;28;20519;-74
2023/09/23 01:32:21;;;;;;;32.13;17.85;;;;;;;;;;2090570;28;20050;-74
2023/09/23 01:33:42;;;;;;;30.33;17.67;;;;;;;;;;2090778;28;20381;-75
2023/09/23 01:35:05;;;;;;;32.08;17.65;;;;;;;;;;2095615;28;20154;-75
2023/09/23 01:36:25;;;;;;;36.40;17.30;;;;;;;;;;2089284;28;20122;-74
2023/09/23 01:37:48;;;;;;;29.00;15.45;;;;;;;;;;2085127;28;20083;-74
2023/09/23 01:39:09;;;;;;;27.67;15.80;;;;;;;;;;2095770;28;20449;-74
2023/09/23 01:40:34;;;;;;;29.55;14.85;;;;;;;;;;2092900;28;21428;-74
2023/09/23 01:41:55;;;;;;;31.80;16.58;;;;;;;;;;2093960;28;20159;-75
2023/09/23 01:43:16;;;;;;;28.90;16.02;;;;;;;;;;2098917;28;20657;-74
2023/09/23 01:44:37;;;;;;;28.63;15.20;;;;;;;;;;2092206;28;20040;-75
2023/09/23 01:46:03;;;;;;;28.23;16.58;;;;;;;;;;2091411;28;20381;-75
2023/09/23 01:47:25;;;;;;;23.50;15.05;;;;;;;;;;2093348;28;20040;-75
2023/09/23 01:48:46;;;;;;;28.23;14.82;;;;;;;;;;2093694;28;20102;-74
2023/09/23 01:50:09;;;;;;;24.80;14.73;;;;;;;;;;2095454;28;20040;-75
2023/09/23 01:51:30;;;;;;;28.58;15.32;;;;;;;;;;2094180;28;20074;-75
2023/09/23 01:52:51;;;;;;;25.52;14.45;;;;;;;;;;2096997;28;20108;-75
2023/09/23 01:54:16;;;;;;;26.83;15.35;;;;;;;;;;2102363;28;21083;-74
2023/09/23 01:55:37;;;;;;;22.23;13.60;;;;;;;;;;2097547;28;20024;-75
2023/09/23 01:56:57;;;;;;;20.00;13.90;;;;;;;;;;2092142;28;20514;-74
2023/09/23 01:58:19;;;;;;;25.70;12.60;;;;;;;;;;2092582;28;20040;-74
2023/09/23 01:59:40;;;;;;;24.55;14.63;;;;;;;;;;2097579;28;20035;-75
2023/09/23 02:01:04;;;;;;;20.73;12.35;;;;;;;;;;2089490;28;20045;-75
2023/09/23 02:02:26;;;;;;;26.23;12.68;;;;;;;;;;2093500;28;20029;-75
2023/09/23 02:03:51;;;;;;;21.52;11.73;;;;;;;;;;2096119;28;20032;-74
2023/09/23 02:05:12;;;;;;;21.13;12.10;;;;;;;;;;2100877;28;20032;-74
2023/09/23 02:06:36;;;;;;;22.40;12.82;;;;;;;;;;2096661;28;20024;-75
2023/09/23 02:07:57;;;;;;;23.60;12.57;;;;;;;;;;2090754;28;20060;-75
2023/09/23 02:09:18;;;;;;;24.92;12.63;;;;;;;;;;2096792;28;20033;-75
2023/09/23 02:10:42;;;;;;;20.63;12.05;;;;;;;;;;2097799;28;20380;-74
2023/09/23 02:12:03;;;;;;;23.52;13.40;;;;;;;;;;2092063;28;20051;-75
2023/09/23 02:13:24;;;;;;;21.42;11.65;;;;;;;;;;2094045;28;20028;-74
2023/09/23 02:14:45;;;;;;;21.00;10.98;;;;;;;;;;2100411;28;20502;-75
2023/09/23 02:16:06;;;;;;;22.92;11.23;;;;;;;;;;2099694;28;20032;-74
2023/09/23 02:17:27;;;;;;;20.35;10.60;;;;;;;;;;2097146;28;20032;-75
2023/09/23 02:18:50;;;;;;;22.63;11.45;;;;;;;;;;2096274;28;20460;-75
2023/09/23 02:20:17;;;;;;;21.27;10.35;;;;;;;;;;2100272;28;20032;-74
2023/09/23 02:21:38;;;;;;;18.95;11.20;;;;;;;;;;2096825;28;20032;-75
2023/09/23 02:22:59;;;;;;;21.23;10.80;;;;;;;;;;2092284;28;20032;-74
2023/09/23 02:24:19;;;;;;;21.35;10.63;;;;;;;;;;2098008;28;20110;-74
2023/09/23 02:25:40;;;;;;;21.13;11.10;;;;;;;;;;2096736;28;20048;-74
2023/09/23 02:27:01;;;;;;;18.48;11.18;;;;;;;;;;2099848;28;20028;-75
2023/09/23 02:28:23;;;;;;;19.70;10.93;;;;;;;;;;2099514;28;20085;-74
2023/09/23 02:29:44;;;;;;;21.88;11.77;;;;;;;;;;2094676;28;20500;-74
2023/09/23 02:31:05;;;;;;;20.05;11.70;;;;;;;;;;2094931;28;20082;-74
2023/09/23 02:32:25;;;;;;;19.27;10.30;;;;;;;;;;2092046;28;20134;-75
2023/09/23 02:33:46;;;;;;;25.30;11.35;;;;;;;;;;2090016;28;20036;-74
2023/09/23 02:35:11;;;;;;;21.90;10.77;;;;;;;;;;2102253;28;20032;-74
2023/09/23 02:36:33;;;;;;;18.95;11.40;;;;;;;;;;2092492;28;20047;-75
2023/09/23 02:37:54;;;;;;;21.60;11.50;;;;;;;;;;2092261;28;20028;-74
2023/09/23 02:39:16;;;;;;;19.73;11.07;;;;;;;;;;2101233;28;20032;-75
2023/09/23 02:40:39;;;;;;;22.20;10.68;;;;;;;;;;2093566;28;20032;-74
2023/09/23 02:42:04;;;;;;;20.67;11.43;;;;;;;;;;2090713;28;20433;-74
2023/09/23 02:43:25;;;;;;;18.88;10.55;;;;;;;;;;2095641;28;20392;-75
2023/09/23 02:44:46;;;;;;;21.57;11.40;;;;;;;;;;2090921;28;20090;-74
2023/09/23 02:46:07;;;;;;;23.35;11.07;;;;;;;;;;2094126;28;20446;-74
2023/09/23 02:47:30;;;;;;;15.85;10.18;;;;;;;;;;2092312;28;20032;-74
2023/09/23 02:48:51;;;;;;;18.92;10.73;;;;;;;;;;2094162;28;20032;-74
2023/09/23 02:50:13;;;;;;;23.75;11.50;;;;;;;;;;2095144;28;20048;-75
2023/09/23 02:51:34;;;;;;;;;;;;;;;;;;2097131;28;20033;-74
2023/09/23 02:52:55;;;;;;;21.30;10.45;;;;;;;;;;2088555;28;19904;-74
2023/09/23 02:54:17;;;;;;;17.88;9.98;;;;;;;;;;2090549;28;20103;-76
2023/09/23 02:55:41;;;;;;;15.95;11.18;;;;;;;;;;2094976;28;20609;-75
2023/09/23 02:57:02;;;;;;;15.52;9.50;;;;;;;;;;2094591;28;20089;-75
2023/09/23 02:58:23;;;;;;;18.50;10.38;;;;;;;;;;2091585;28;20267;-75
2023/09/23 02:59:46;;;;;;;16.67;9.48;;;;;;;;;;2101286;28;20644;-75
2023/09/23 03:01:14;;;;;;;18.38;12.18;;;;;;;;;;2092038;28;20040;-74
2023/09/23 03:02:38;;;;;;;17.17;11.60;;;;;;;;;;2090249;28;20033;-75
2023/09/23 03:04:06;;;;;;;21.95;11.95;;;;;;;;;;2088700;28;20037;-75
2023/09/23 03:05:31;;;;;;;20.90;9.90;;;;;;;;;;2095848;28;20052;-75
2023/09/23 03:07:01;;;;;;;18.20;10.75;;;;;;;;;;2094230;28;20094;-75
2023/09/23 03:08:22;;;;;;;17.70;10.50;;;;;;;;;;2086465;28;20056;-75
2023/09/23 03:09:55;;;;;;;16.17;10.00;;;;;;;;;;2090824;28;20028;-75
2023/09/23 03:11:18;;;;;;;20.02;9.85;;;;;;;;;;2092489;28;20033;-74
2023/09/23 03:12:50;;;;;;;17.33;11.25;;;;;;;;;;2092898;28;20033;-74
2023/09/23 03:14:17;;;;;;;;;;;;;;;;;;2085012;28;20033;-75
2023/09/23 03:15:48;;;;;;;15.80;9.98;;;;;;;;;;2092889;28;19908;-75
2023/09/23 03:17:12;;;;;;;19.65;11.13;;;;;;;;;;2092931;28;20033;-74
2023/09/23 03:18:34;;;;;;;32.85;11.13;;;;;;;;;;2091903;28;20033;-74
2023/09/23 03:19:54;;;;;;;16.97;10.57;;;;;;;;;;2092322;28;20041;-75
2023/09/23 03:21:15;;;;;;;19.73;10.63;;;;;;;;;;2092294;28;20972;-75
2023/09/23 03:22:36;;;;;;;22.35;11.45;;;;;;;;;;2094157;28;20045;-75
2023/09/23 03:23:58;;;;;;;14.48;9.80;;;;;;;;;;2092578;28;20036;-75
2023/09/23 03:25:20;;;;;;;23.90;13.05;;;;;;;;;;2089366;28;20094;-75
2023/09/23 03:26:43;;;;;;;19.33;10.93;;;;;;;;;;2093373;28;20059;-75
2023/09/23 03:28:06;;;;;;;16.38;10.98;;;;;;;;;;2100499;28;20083;-75
2023/09/23 03:29:30;;;;;;;24.77;11.95;;;;;;;;;;2096265;28;20078;-74
2023/09/23 03:30:57;;;;;;;17.98;10.65;;;;;;;;;;2094112;28;20029;-75
2023/09/23 03:32:20;;;;;;;25.80;11.38;;;;;;;;;;2094558;28;20029;-74
2023/09/23 03:33:42;;;;;;;23.00;10.25;;;;;;;;;;2094996;28;20047;-75
2023/09/23 03:35:03;;;;;;;19.55;9.73;;;;;;;;;;2093533;28;20037;-75
2023/09/23 03:36:25;;;;;;;18.67;9.37;;;;;;;;;;2096615;28;20033;-75
2023/09/23 03:37:49;;;;;;;17.70;10.32;;;;;;;;;;2094692;28;20021;-75
2023/09/23 03:39:10;;;;;;;17.00;10.02;;;;;;;;;;2089786;28;20037;-75
2023/09/23 03:40:31;;;;;;;18.38;10.13;;;;;;;;;;2094020;28;20135;-75
2023/09/23 03:41:52;;;;;;;15.20;8.73;;;;;;;;;;2094037;28;20033;-75
2023/09/23 03:43:13;;;;;;;19.13;10.73;;;;;;;;;;2091445;28;20040;-75
2023/09/23 03:44:35;;;;;;;16.33;9.57;;;;;;;;;;2101067;28;20055;-75
2023/09/23 03:45:56;;;;;;;14.90;8.38;;;;;;;;;;2096750;28;20025;-75
2023/09/23 03:47:17;;;;;;;20.10;10.75;;;;;;;;;;2101229;28;20028;-75
2023/09/23 03:48:38;;;;;;;13.60;8.77;;;;;;;;;;2097033;28;20040;-75
2023/09/23 03:49:59;;;;;;;17.10;8.82;;;;;;;;;;2096441;28;20059;-75
2023/09/23 03:51:20;;;;;;;16.33;9.07;;;;;;;;;;2096560;28;20039;-75
2023/09/23 03:52:41;;;;;;;13.60;9.70;;;;;;;;;;2096389;28;20032;-76
2023/09/23 03:54:02;;;;;;;19.27;9.88;;;;;;;;;;2098803;28;20465;-75
2023/09/23 03:55:24;;;;;;;15.63;8.65;;;;;;;;;;2097318;28;20017;-75
2023/09/23 03:56:45;;;;;;;19.38;8.95;;;;;;;;;;2096629;28;20031;-75
2023/09/23 03:58:06;;;;;;;16.80;9.80;;;;;;;;;;2102651;28;20020;-74
2023/09/23 03:59:27;;;;;;;13.27;9.05;;;;;;;;;;2093740;28;20025;-75
2023/09/23 04:00:49;;;;;;;18.83;10.15;;;;;;;;;;2098304;28;20021;-75
2023/09/23 04:02:10;;;;;;;14.43;9.48;;;;;;;;;;2096162;28;20037;-75
2023/09/23 04:03:34;;;;;;;15.00;9.87;;;;;;;;;;2098264;28;20029;-75
2023/09/23 04:04:54;;;;;;;14.15;8.95;;;;;;;;;;2100842;28;20999;-75
2023/09/23 04:06:15;;;;;;;12.98;9.70;;;;;;;;;;2092772;28;20075;-75
2023/09/23 04:07:40;;;;;;;13.40;8.98;;;;;;;;;;2092912;28;20035;-75
2023/09/23 04:09:00;;;;;;;14.32;8.73;;;;;;;;;;2098826;28;20075;-75
2023/09/23 04:10:23;;;;;;;19.83;8.60;;;;;;;;;;2094774;28;20029;-74
2023/09/23 04:11:45;;;;;;;14.88;8.02;;;;;;;;;;2098666;28;20029;-75
2023/09/23 04:13:06;;;;;;;18.45;10.75;;;;;;;;;;2097277;28;20029;-75
2023/09/23 04:14:28;;;;;;;14.52;9.00;;;;;;;;;;2092805;28;20064;-75
2023/09/23 04:15:49;;;;;;;20.92;9.98;;;;;;;;;;2093212;28;20020;-75
2023/09/23 04:17:11;;;;;;;18.55;10.32;;;;;;;;;;2093020;28;20024;-76
2023/09/23 04:18:31;;;;;;;22.42;10.35;;;;;;;;;;2094731;28;20032;-75
2023/09/23 04:19:54;;;;;;;15.68;8.90;;;;;;;;;;2088683;28;20033;-75
2023/09/23 04:21:15;;;;;;;16.88;9.52;;;;;;;;;;2092803;28;20041;-75
2023/09/23 04:22:41;;;;;;;16.17;9.68;;;;;;;;;;2093950;28;20496;-75
2023/09/23 04:24:02;;;;;;;15.10;9.65;;;;;;;;;;2097751;28;20040;-75
2023/09/23 04:25:22;;;;;;;15.63;9.15;;;;;;;;;;2098228;28;20029;-74
2023/09/23 04:26:43;;;;;;;17.73;9.88;;;;;;;;;;2094552;28;20032;-74
2023/09/23 04:28:04;;;;;;;13.98;8.88;;;;;;;;;;2091617;28;20429;-75
2023/09/23 04:29:25;;;;;;;16.30;9.52;;;;;;;;;;2093038;28;20041;-75
2023/09/23 04:30:46;;;;;;;13.48;8.63;;;;;;;;;;2097057;28;20403;-75
2023/09/23 04:32:07;;;;;;;17.40;9.20;;;;;;;;;;2094277;28;20089;-75
2023/09/23 04:33:28;;;;;;;16.92;9.43;;;;;;;;;;2094683;28;20396;-74
2023/09/23 04:34:49;;;;;;;19.90;9.85;;;;;;;;;;2093810;28;20044;-75
2023/09/23 04:36:11;;;;;;;13.63;9.63;;;;;;;;;;2094642;28;20077;-75
2023/09/23 04:37:36;;;;;;;19.98;9.32;;;;;;;;;;2094073;28;20021;-74
2023/09/23 04:38:57;;;;;;;19.67;10.02;;;;;;;;;;2093710;28;20117;-76
2023/09/23 04:40:18;;;;;;;14.15;8.95;;;;;;;;;;2094359;28;20577;-75
2023/09/23 04:41:40;;;;;;;19.85;10.40;;;;;;;;;;2093528;28;20044;-75
2023/09/23 04:43:04;;;;;;;16.63;10.02;;;;;;;;;;2091685;28;20041;-75
2023/09/23 04:44:25;;;;;;;15.30;8.57;;;;;;;;;;2101206;28;20040;-75
2023/09/23 04:45:46;;;;;;;19.57;8.90;;;;;;;;;;2098355;28;20028;-75
2023/09/23 04:47:07;;;;;;;16.45;8.55;;;;;;;;;;2086382;28;20437;-75
2023/09/23 04:48:30;;;;;;;13.93;8.82;;;;;;;;;;2092202;28;20519;-75
2023/09/23 04:49:52;;;;;;;20.55;9.38;;;;;;;;;;2090977;28;20043;-75
2023/09/23 04:51:13;;;;;;;15.73;9.27;;;;;;;;;;2093197;28;20028;-75
2023/09/23 04:52:34;;;;;;;15.68;8.80;;;;;;;;;;2096049;28;20028;-75
2023/09/23 04:53:55;;;;;;;13.80;9.20;;;;;;;;;;2094524;28;20534;-75
2023/09/23 04:55:16;;;;;;;14.25;9.05;;;;;;;;;;2093911;28;20412;-75
2023/09/23 04:56:41;;;;;;;15.57;9.23;;;;;;;;;;2095770;28;20044;-74
2023/09/23 04:58:01;;;;;;;18.85;9.32;;;;;;;;;;2101142;28;20024;-75
2023/09/23 04:59:22;;;;;;;15.45;9.05;;;;;;;;;;2094606;28;20075;-75
2023/09/23 05:00:43;;;;;;;15.25;8.98;;;;;;;;;;2095286;28;20033;-75
2023/09/23 05:02:04;;;;;;;11.10;7.97;;;;;;;;;;2084926;28;20037;-75
2023/09/23 05:03:25;;;;;;;12.77;8.02;;;;;;;;;;2092233;28;20456;-75
2023/09/23 05:04:46;;;;;;;13.75;8.38;;;;;;;;;;2093920;28;20044;-75
2023/09/23 05:06:08;;;;;;;14.07;8.65;;;;;;;;;;2095935;28;20043;-75
2023/09/23 05:07:29;;;;;;;13.35;8.18;;;;;;;;;;2096066;28;20492;-75
2023/09/23 05:08:50;;;;;;;15.18;9.18;;;;;;;;;;2095193;28;20036;-75
2023/09/23 05:10:12;;;;;;;16.27;8.70;;;;;;;;;;2093203;28;20052;-75
2023/09/23 05:11:33;;;;;;;14.40;8.35;;;;;;;;;;2095148;28;20577;-75
2023/09/23 05:12:56;;;;;;;13.45;9.52;;;;;;;;;;2094578;28;20035;-74
2023/09/23 05:14:17;;;;;;;13.93;9.50;;;;;;;;;;2094683;28;20025;-75
2023/09/23 05:15:38;;;;;;;13.98;8.77;;;;;;;;;;2089456;28;20033;-75
2023/09/23 05:16:59;;;;;;;12.00;7.75;;;;;;;;;;2099338;28;20529;-75
2023/09/23 05:18:20;;;;;;;21.23;9.63;;;;;;;;;;2108275;28;20019;-74
2023/09/23 05:19:41;;;;;;;19.13;9.80;;;;;;;;;;2093718;28;20046;-75
2023/09/23 05:21:02;;;;;;;17.30;9.48;;;;;;;;;;2097343;28;20037;-76
2023/09/23 05:22:23;;;;;;;16.15;10.73;;;;;;;;;;2106981;28;20073;-75
2023/09/23 05:23:48;;;;;;;16.48;9.68;;;;;;;;;;2097122;28;20036;-75
2023/09/23 05:25:11;;;;;;;14.10;9.40;;;;;;;;;;2090565;28;20170;-75
2023/09/23 05:26:33;;;;;;;18.90;10.00;;;;;;;;;;2093826;28;20028;-75
2023/09/23 05:27:54;;;;;;;19.60;9.15;;;;;;;;;;2093611;28;20484;-75
2023/09/23 05:29:15;;;;;;;18.38;10.02;;;;;;;;;;2094847;28;20664;-75
2023/09/23 05:30:37;;;;;;;13.15;9.75;;;;;;;;;;2094605;28;20041;-75
2023/09/23 05:31:58;;;;;;;14.63;9.48;;;;;;;;;;2092578;28;20033;-75
2023/09/23 05:33:19;;;;;;;14.77;9.43;;;;;;;;;;2091382;28;20680;-75
2023/09/23 05:34:40;;;;;;;15.07;9.87;;;;;;;;;;2092929;28;20029;-75
2023/09/23 05:36:01;;;;;;;23.67;10.98;;;;;;;;;;2093691;28;20112;-75
2023/09/23 05:37:23;;;;;;;17.75;10.75;;;;;;;;;;2097846;28;20032;-75
2023/09/23 05:38:43;;;;;;;14.27;10.02;;;;;;;;;;2096479;28;20454;-73
2023/09/23 05:40:08;;;;;;;16.83;11.10;;;;;;;;;;2091688;28;20036;-73
2023/09/23 05:41:29;;;;;;;19.23;9.98;;;;;;;;;;2095358;28;20036;-73
2023/09/23 05:42:50;;;;;;;14.02;9.55;;;;;;;;;;2099447;28;20028;-75
2023/09/23 05:44:12;;;;;;;21.55;14.90;;;;;;;;;;2094461;28;20072;-75
2023/09/23 05:45:35;;;;;;;19.27;10.40;;;;;;;;;;2098623;28;20024;-75
2023/09/23 05:46:56;;;;;;;18.63;10.38;;;;;;;;;;2094815;28;20032;-75
2023/09/23 05:48:16;;;;;;;17.92;11.15;;;;;;;;;;2094400;28;20025;-75
2023/09/23 05:49:38;;;;;;;17.65;9.88;;;;;;;;;;2096291;28;20484;-76
2023/09/23 05:51:05;;;;;;;16.38;9.90;;;;;;;;;;2101477;28;20097;-75
2023/09/23 05:52:27;;;;;;;19.55;10.95;;;;;;;;;;2110507;28;20036;-75
2023/09/23 05:53:48;;;;;;;17.55;10.25;;;;;;;;;;2097454;28;20024;-75
2023/09/23 05:55:09;;;;;;;14.65;10.05;;;;;;;;;;2092417;28;20037;-75
2023/09/23 05:56:30;;;;;;;13.75;10.43;;;;;;;;;;2090408;28;20046;-75
2023/09/23 05:57:52;;;;;;;17.33;10.80;;;;;;;;;;2092924;28;20021;-76
2023/09/23 05:59:14;;;;;;;;;;;;;;;;;;2098817;28;20028;-76
2023/09/23 06:00:35;;;;;;;16.17;10.23;;;;;;;;;;2094012;28;19916;-75
2023/09/23 06:01:56;;;;;;;15.77;9.23;;;;;;;;;;2091976;28;20590;-75
2023/09/23 06:03:17;;;;;;;17.38;10.52;;;;;;;;;;2094297;28;20083;-75
2023/09/23 06:04:38;;;;;;;21.50;9.55;;;;;;;;;;2091663;28;20653;-76
2023/09/23 06:05:59;;;;;;;18.60;10.25;;;;;;;;;;2095957;28;20114;-75
2023/09/23 06:07:20;;;;;;;18.75;12.43;;;;;;;;;;2093932;28;20036;-75
2023/09/23 06:08:41;;;;;;;15.40;10.52;;;;;;;;;;2094693;28;20044;-75
2023/09/23 06:10:03;;;;;;;17.17;10.55;;;;;;;;;;2096971;28;20387;-75
2023/09/23 06:11:24;;;;;;;18.58;10.60;;;;;;;;;;2096496;28;20051;-75
2023/09/23 06:12:45;;;;;;;20.13;10.20;;;;;;;;;;2094414;28;20353;-76
2023/09/23 06:14:08;;;;;;;14.40;10.13;;;;;;;;;;2094525;28;20138;-76
2023/09/23 06:15:31;;;;;;;17.50;9.88;;;;;;;;;;2092113;28;20531;-77
2023/09/23 06:16:51;;;;;;;17.65;10.93;;;;;;;;;;2090118;28;20051;-76
2023/09/23 06:18:12;;;;;;;18.55;11.70;;;;;;;;;;2092325;28;20029;-76
2023/09/23 06:19:33;;;;;;;16.77;10.77;;;;;;;;;;2093160;28;21216;-75
2023/09/23 06:20:58;;;;;;;18.25;10.50;;;;;;;;;;2093634;28;20033;-76
2023/09/23 06:22:19;;;;;;;15.15;9.98;;;;;;;;;;2095886;28;21506;-75
2023/09/23 06:23:40;;;;;;;19.58;10.18;;;;;;;;;;2096781;28;20043;-76
2023/09/23 06:25:02;;;;;;;17.55;9.77;;;;;;;;;;2089881;28;20044;-75
2023/09/23 06:26:23;;;;;;;14.85;9.40;;;;;;;;;;2092642;28;20669;-76
2023/09/23 06:27:44;;;;;;;19.13;9.93;;;;;;;;;;2097937;28;20036;-76
2023/09/23 06:29:05;;;;;;;15.25;9.88;;;;;;;;;;2094002;28;20049;-76
2023/09/23 06:30:26;;;;;;;18.85;10.07;;;;;;;;;;2093603;28;20407;-76
2023/09/23 06:31:47;;;;;;;15.02;9.57;;;;;;;;;;2095932;28;20021;-76
2023/09/23 06:33:08;;;;;;;13.80;9.70;;;;;;;;;;2095424;28;20028;-76
2023/09/23 06:34:29;;;;;;;19.13;10.80;;;;;;;;;;2094139;28;20033;-76
2023/09/23 06:35:50;;;;;;;11.80;8.60;;;;;;;;;;2092955;28;20044;-76
2023/09/23 06:37:11;;;;;;;16.48;9.75;;;;;;;;;;2093885;28;20025;-76
2023/09/23 06:38:32;;;;;;;22.88;12.82;;;;;;;;;;2096170;28;20025;-76
2023/09/23 06:39:53;;;;;;;23.80;11.38;;;;;;;;;;2094488;28;20021;-76
2023/09/23 06:41:14;;;;;;;16.25;10.10;;;;;;;;;;2096372;28;20087;-76
2023/09/23 06:42:35;;;;;;;16.63;9.43;;;;;;;;;;2094749;28;20124;-76
2023/09/23 06:43:56;;;;;;;19.75;10.27;;;;;;;;;;2094412;28;20029;-75
2023/09/23 06:45:18;;;;;;;13.32;9.25;;;;;;;;;;2094842;28;20155;-76
2023/09/23 06:46:39;;;;;;;17.00;10.00;;;;;;;;;;2096060;28;20040;-76
2023/09/23 06:48:00;;;;;;;14.63;9.30;;;;;;;;;;2094783;28;20032;-75
2023/09/23 06:49:22;;;;;;;16.20;9.10;;;;;;;;;;2096273;28;20051;-75
2023/09/23 06:50:43;;;;;;;20.90;10.02;;;;;;;;;;2095757;28;20106;-75
2023/09/23 06:52:04;;;;;;;16.02;9.45;;;;;;;;;;2088092;28;20099;-73
2023/09/23 06:53:25;;;;;;;18.15;9.75;;;;;;;;;;2100914;28;20035;-74
2023/09/23 06:54:46;;;;;;;12.48;8.63;;;;;;;;;;2093060;28;20029;-74
2023/09/23 06:56:06;;;;;;;19.58;9.93;;;;;;;;;;2102439;28;20487;-73
2023/09/23 06:57:27;;;;;;;17.38;9.30;;;;;;;;;;2097003;28;20033;-73
2023/09/23 06:58:48;;;;;;;15.18;9.77;;;;;;;;;;2101522;28;20028;-73
2023/09/23 07:00:10;;;;;;;14.35;9.02;;;;;;;;;;2096205;28;20483;-73
2023/09/23 07:01:33;;;;;;;;;;;;;;;;;;2095568;28;20029;-74
2023/09/23 07:02:54;;;;;;;18.95;10.55;;;;;;;;;;2095976;28;20028;-73
2023/09/23 07:04:14;;;;;;;18.58;10.30;;;;;;;;;;2092921;28;20435;-72
2023/09/23 07:05:35;;;;;;;11.88;8.75;;;;;;;;;;2094699;28;20036;-73
2023/09/23 07:06:56;;;;;;;12.30;8.75;;;;;;;;;;2092881;28;20047;-73
2023/09/23 07:08:17;;;;;;;15.63;9.52;;;;;;;;;;2108918;28;20415;-72
2023/09/23 07:09:38;;;;;;;12.00;8.52;;;;;;;;;;2098537;28;20033;-73
2023/09/23 07:10:59;;;;;;;14.55;8.35;;;;;;;;;;2095752;28;20029;-73
2023/09/23 07:12:20;;;;;;;15.90;8.55;;;;;;;;;;2096198;28;20901;-73
2023/09/23 07:13:41;;;;;;;13.15;8.60;;;;;;;;;;2092794;28;20024;-73
2023/09/23 07:15:02;;;;;;;11.02;7.80;;;;;;;;;;2095209;28;20044;-73
2023/09/23 07:16:23;;;;;;;16.35;9.15;;;;;;;;;;2102802;28;20093;-73
2023/09/23 07:17:44;;;;;;;15.15;8.10;;;;;;;;;;2097911;28;20033;-73
2023/09/23 07:19:05;;;;;;;14.38;9.05;;;;;;;;;;2092511;28;20032;-72
2023/09/23 07:20:26;;;;;;;14.65;8.02;;;;;;;;;;2095112;28;20062;-73
2023/09/23 07:21:47;;;;;;;14.20;7.85;;;;;;;;;;2095459;28;20032;-73
2023/09/23 07:23:08;;;;;;;12.45;8.52;;;;;;;;;;2092659;28;20028;-72
2023/09/23 07:24:32;;;;;;;14.35;8.45;;;;;;;;;;2095357;28;20025;-73
2023/09/23 07:25:53;;;;;;;11.05;7.47;;;;;;;;;;2095374;28;20063;-73
2023/09/23 07:27:14;;;;;;;13.73;8.15;;;;;;;;;;2095408;28;20028;-73
2023/09/23 07:28:35;;;;;;;14.88;7.35;;;;;;;;;;2095275;28;20082;-74
2023/09/23 07:29:56;;;;;;;13.10;7.40;;;;;;;;;;2093422;28;20408;-72
2023/09/23 07:31:17;;;;;;;11.70;8.18;;;;;;;;;;2093689;28;20071;-72
2023/09/23 07:32:38;;;;;;;15.35;7.85;;;;;;;;;;2095902;28;20024;-72
2023/09/23 07:33:59;;;;;;;14.32;7.22;;;;;;;;;;2107199;28;20024;-71
2023/09/23 07:35:20;;;;;;;12.32;7.88;;;;;;;;;;2091749;28;20060;-72
2023/09/23 07:36:42;;;;;;;16.88;8.88;;;;;;;;;;2093754;28;20096;-72
2023/09/23 07:38:03;;;;;;;9.10;6.85;;;;;;;;;;2093347;28;20033;-73
2023/09/23 07:39:24;;;;;;;13.57;6.95;;;;;;;;;;2089769;28;20033;-73
2023/09/23 07:40:45;;;;;;;10.10;5.57;;;;;;;;;;2091459;28;20033;-73
2023/09/23 07:42:06;;;;;;;11.90;6.97;;;;;;;;;;2092468;28;20024;-73
2023/09/23 07:43:27;;;;;;;14.07;5.82;;;;;;;;;;2092492;28;20412;-72
2023/09/23 07:44:48;;;;;;;12.27;7.03;;;;;;;;;;2093015;28;20028;-72
2023/09/23 07:46:08;;;;;;;15.88;8.05;;;;;;;;;;2093422;28;20211;-72
2023/09/23 07:47:29;;;;;;;12.30;6.00;;;;;;;;;;2095266;28;20624;-73
2023/09/23 07:48:50;;;;;;;10.10;6.22;;;;;;;;;;2108587;28;20027;-74
2023/09/23 07:50:11;;;;;;;9.60;6.72;;;;;;;;;;2095345;28;20082;-73
2023/09/23 07:51:33;;;;;;;10.50;5.90;;;;;;;;;;2092037;28;20128;-72
2023/09/23 07:52:54;;;;;;;12.07;6.22;;;;;;;;;;2088236;28;20171;-74
2023/09/23 07:54:16;;;;;;;10.65;5.50;;;;;;;;;;2097990;28;20398;-73
2023/09/23 07:55:37;;;;;;;14.93;5.97;;;;;;;;;;2093144;28;20121;-73
2023/09/23 07:56:58;;;;;;;10.57;5.95;;;;;;;;;;2091409;28;20028;-73
2023/09/23 07:58:19;;;;;;;10.20;6.60;;;;;;;;;;2099978;28;20032;-73
2023/09/23 07:59:41;;;;;;;12.77;6.15;;;;;;;;;;2086650;28;20489;-72
2023/09/23 08:01:03;;;;;;;9.15;6.70;;;;;;;;;;2092168;28;20165;-72